Time;durP1;ratioP1;P1;durP2;ratioP2;P2;SDS_P1;SDS_P2;PMS_P1;PMS_P2;Temp;Humidity;BMP_temperature;BMP_pressure;BME280_temperature;BME280_humidity;BME280_pressure;Samples;Min_cycle;Max_cycle;Signal;HPM_P1;HPM_P2
2021/08/27 00:01:01;;;;;;;8.75;7.85;;;14.10;99.90;;;;;;4979856;28;20042;-84
2021/08/27 00:03:28;;;;;;;8.93;7.60;;;14.00;99.90;;;;;;4996306;28;20054;-83
2021/08/27 00:05:55;;;;;;;12.63;8.20;;;14.00;99.90;;;;;;4993872;28;20058;-84
2021/08/27 00:08:22;;;;;;;8.70;7.60;;;14.10;99.90;;;;;;5009591;28;20053;-84
2021/08/27 00:10:49;;;;;;;8.20;7.00;;;14.00;99.90;;;;;;4994785;28;20054;-84
2021/08/27 00:13:16;;;;;;;9.25;7.00;;;14.10;99.90;;;;;;4990165;28;20054;-82
2021/08/27 00:15:43;;;;;;;8.85;7.93;;;14.10;99.90;;;;;;4992779;28;20523;-83
2021/08/27 00:18:10;;;;;;;9.50;7.30;;;14.10;99.90;;;;;;4979091;28;20128;-83
2021/08/27 00:20:38;;;;;;;11.18;8.48;;;14.00;99.90;;;;;;5011189;28;20050;-82
2021/08/27 00:23:05;;;;;;;13.80;7.63;;;14.10;99.90;;;;;;4993569;28;20069;-83
2021/08/27 00:25:32;;;;;;;12.10;9.02;;;14.10;99.90;;;;;;4995301;28;20101;-82
2021/08/27 00:27:59;;;;;;;9.65;7.88;;;14.10;99.90;;;;;;4983242;28;20256;-83
2021/08/27 00:30:26;;;;;;;9.93;8.93;;;14.10;99.90;;;;;;4995021;28;20050;-84
2021/08/27 00:32:53;;;;;;;12.88;9.32;;;14.10;99.90;;;;;;4992659;28;20038;-83
2021/08/27 00:35:20;;;;;;;13.30;10.35;;;14.10;99.90;;;;;;4995390;28;20050;-83
2021/08/27 00:37:47;;;;;;;17.85;10.60;;;14.10;99.90;;;;;;4995696;28;20462;-82
2021/08/27 00:40:14;;;;;;;11.98;10.32;;;14.10;99.90;;;;;;4995393;28;20153;-83
2021/08/27 00:42:41;;;;;;;11.60;10.50;;;14.10;99.90;;;;;;5009598;28;20660;-83
2021/08/27 00:45:09;;;;;;;11.30;10.02;;;14.10;99.90;;;;;;4991991;28;20077;-83
2021/08/27 00:47:36;;;;;;;14.43;10.50;;;14.10;99.90;;;;;;5010747;28;20050;-83
2021/08/27 00:50:05;;;;;;;14.18;11.73;;;14.10;99.90;;;;;;4994681;28;20111;-83
2021/08/27 00:52:36;;;;;;;9.80;8.63;;;14.10;99.90;;;;;;4996813;28;20116;-84
2021/08/27 00:55:04;;;;;;;14.80;10.23;;;14.10;99.90;;;;;;5008910;28;20045;-83
2021/08/27 00:57:32;;;;;;;12.25;10.10;;;14.10;99.90;;;;;;4996098;28;20049;-83
2021/08/27 00:59:59;;;;;;;11.60;10.38;;;14.10;99.90;;;;;;5006299;28;20045;-83
2021/08/27 01:02:26;;;;;;;13.50;12.13;;;14.10;99.90;;;;;;4991001;23;20054;-67
2021/08/27 01:04:54;;;;;;;13.98;10.80;;;14.10;99.90;;;;;;4986558;28;20054;-67
2021/08/27 01:07:27;;;;;;;12.18;10.82;;;14.10;99.90;;;;;;4968200;28;20105;-70
2021/08/27 01:10:18;;;;;;;14.32;12.15;;;14.10;99.90;;;;;;4969654;28;20479;-66
2021/08/27 01:13:01;;;;;;;12.45;10.80;;;14.10;99.90;;;;;;4970139;28;20050;-70
2021/08/27 01:15:47;;;;;;;16.48;11.65;;;14.10;99.90;;;;;;4968730;28;20518;-70
2021/08/27 01:18:43;;;;;;;14.20;10.70;;;14.10;99.90;;;;;;4969420;28;20518;-67
2021/08/27 01:21:47;;;;;;;14.32;11.00;;;14.10;99.90;;;;;;4954036;28;20442;-69
2021/08/27 01:24:18;;;;;;;12.13;10.55;;;14.10;99.90;;;;;;4969093;28;20138;-67
2021/08/27 01:26:49;;;;;;;;;;;14.10;99.90;;;;;;4970865;28;20098;-68
2021/08/27 01:29:49;;;;;;;15.75;9.98;;;14.10;99.90;;;;;;4970278;28;19960;-68
2021/08/27 01:32:20;;;;;;;12.50;10.40;;;14.10;99.90;;;;;;4958466;28;20074;-69
2021/08/27 01:34:49;;;;;;;12.23;10.93;;;14.10;99.90;;;;;;4969912;28;20146;-69
2021/08/27 01:37:20;;;;;;;12.20;10.10;;;14.00;99.90;;;;;;4970134;28;20050;-66
2021/08/27 01:39:58;;;;;;;11.98;10.45;;;14.10;99.90;;;;;;4968732;28;20132;-66
2021/08/27 01:42:27;;;;;;;13.27;10.43;;;14.00;99.90;;;;;;4969127;28;20146;-68
2021/08/27 01:44:59;;;;;;;13.68;11.50;;;14.10;99.90;;;;;;4967761;28;20054;-66
2021/08/27 01:47:31;;;;;;;12.75;10.25;;;14.00;99.90;;;;;;4969598;28;20145;-66
2021/08/27 01:49:59;;;;;;;12.05;10.85;;;14.10;99.90;;;;;;4969654;28;20078;-66
2021/08/27 01:52:27;;;;;;;13.65;11.02;;;14.00;99.90;;;;;;4967275;28;20088;-68
2021/08/27 01:54:56;;;;;;;14.00;11.80;;;14.00;99.90;;;;;;4971608;28;20141;-67
2021/08/27 01:57:25;;;;;;;14.67;10.87;;;14.00;99.90;;;;;;4970435;28;20488;-68
2021/08/27 01:59:52;;;;;;;15.23;11.57;;;14.00;99.90;;;;;;4968518;28;20050;-68
2021/08/27 02:02:20;;;;;;;12.38;10.43;;;14.00;99.90;;;;;;4969281;28;20113;-68
2021/08/27 02:04:51;;;;;;;16.00;10.48;;;14.10;99.90;;;;;;4970410;28;20058;-66
2021/08/27 02:07:18;;;;;;;;;;;14.10;99.90;;;;;;4970105;28;20880;-66
2021/08/27 02:09:48;;;;;;;18.77;11.82;;;14.00;99.90;;;;;;4969103;28;19955;-67
2021/08/27 02:12:17;;;;;;;14.80;11.13;;;14.00;99.90;;;;;;4968206;28;20074;-70
2021/08/27 02:14:45;;;;;;;12.70;11.15;;;14.10;99.90;;;;;;4971394;28;20046;-67
2021/08/27 02:17:12;;;;;;;15.15;11.15;;;14.10;99.90;;;;;;4968569;28;20150;-69
2021/08/27 02:19:39;;;;;;;17.92;12.88;;;14.00;99.90;;;;;;4970998;28;20166;-66
2021/08/27 02:22:11;;;;;;;11.88;9.35;;;14.00;99.90;;;;;;4973782;28;20054;-66
2021/08/27 02:24:47;;;;;;;14.60;10.68;;;14.10;99.90;;;;;;4975380;28;20117;-66
2021/08/27 02:27:16;;;;;;;11.18;8.90;;;14.10;99.90;;;;;;4975578;28;20152;-67
2021/08/27 02:29:44;;;;;;;13.43;10.15;;;14.10;99.90;;;;;;4973153;28;20145;-66
2021/08/27 02:32:12;;;;;;;13.32;9.65;;;14.10;99.90;;;;;;4971568;28;20050;-69
2021/08/27 02:34:43;;;;;;;11.57;8.43;;;14.10;99.90;;;;;;4975074;28;20185;-68
2021/08/27 02:37:10;;;;;;;;;;;14.10;99.90;;;;;;4974108;28;20062;-66
2021/08/27 02:39:38;;;;;;;10.98;9.75;;;14.10;99.90;;;;;;4988599;28;19929;-69
2021/08/27 02:42:05;;;;;;;14.15;9.98;;;14.10;99.90;;;;;;4971442;28;20169;-66
2021/08/27 02:44:32;;;;;;;9.13;7.93;;;14.10;99.90;;;;;;4975535;28;20054;-67
2021/08/27 02:46:59;;;;;;;12.60;9.45;;;14.10;99.90;;;;;;4974777;28;20054;-69
2021/08/27 02:49:26;;;;;;;13.60;9.70;;;14.10;99.90;;;;;;4975685;28;20053;-67
2021/08/27 02:52:17;;;;;;;13.50;8.75;;;14.10;99.90;;;;;;4971437;28;20145;-72
2021/08/27 02:55:10;;;;;;;13.73;8.70;;;14.00;99.90;;;;;;4975646;28;20128;-66
2021/08/27 02:58:00;;;;;;;12.10;10.38;;;14.00;99.90;;;;;;4965679;28;20125;-67
2021/08/27 03:00:33;;;;;;;14.25;8.68;;;14.00;99.90;;;;;;4965627;28;20141;-66
2021/08/27 03:03:05;;;;;;;14.40;8.60;;;14.10;99.90;;;;;;4971156;28;20081;-68
2021/08/27 03:05:39;;;;;;;10.32;7.97;;;14.10;99.90;;;;;;4973825;28;20061;-69
2021/08/27 03:08:08;;;;;;;9.93;8.38;;;14.10;99.90;;;;;;4971619;28;20129;-69
2021/08/27 03:10:43;;;;;;;11.98;8.35;;;14.10;99.90;;;;;;4974027;28;20081;-69
2021/08/27 03:13:14;;;;;;;13.50;8.13;;;14.10;99.90;;;;;;4972837;28;20495;-71
2021/08/27 03:15:51;;;;;;;10.90;8.10;;;14.10;99.90;;;;;;4971937;28;20471;-72
2021/08/27 03:18:27;;;;;;;13.55;9.18;;;14.10;99.90;;;;;;4972099;28;20093;-66
2021/08/27 03:21:01;;;;;;;12.93;8.95;;;14.10;99.90;;;;;;4973275;28;20053;-68
2021/08/27 03:23:30;;;;;;;12.73;9.07;;;14.10;99.90;;;;;;4973325;28;20571;-69
2021/08/27 03:26:21;;;;;;;8.28;7.48;;;14.10;99.90;;;;;;2203965;28;10024499;-68
2021/08/27 03:28:53;;;;;;;11.52;8.25;;;14.10;99.90;;;;;;4284074;28;10001356;-66
2021/08/27 03:31:24;;;;;;;13.43;8.50;;;14.10;99.90;;;;;;4969729;28;20074;-68
2021/08/27 03:33:53;;;;;;;10.75;7.75;;;14.10;99.90;;;;;;4968673;28;20396;-72
2021/08/27 03:36:25;;;;;;;11.80;7.90;;;14.10;99.90;;;;;;4970744;28;20454;-69
2021/08/27 03:38:56;;;;;;;11.57;7.93;;;14.10;99.90;;;;;;4971293;28;20141;-66
2021/08/27 03:41:31;;;;;;;9.75;8.70;;;14.20;99.90;;;;;;4971138;28;20148;-67
2021/08/27 03:43:59;;;;;;;9.35;6.80;;;14.20;99.90;;;;;;4970613;28;20051;-66
2021/08/27 03:46:26;;;;;;;9.68;8.68;;;14.20;99.90;;;;;;4971924;28;20173;-70
2021/08/27 03:48:54;;;;;;;11.43;8.10;;;14.20;99.90;;;;;;4972895;28;20097;-66
2021/08/27 03:51:22;;;;;;;11.13;9.15;;;14.20;99.90;;;;;;4972297;28;20719;-66
2021/08/27 03:54:09;;;;;;;10.35;7.72;;;14.20;99.90;;;;;;4971965;28;20057;-68
2021/08/27 03:56:36;;;;;;;11.00;8.07;;;14.20;99.90;;;;;;4972178;28;20133;-67
2021/08/27 03:59:04;;;;;;;11.43;8.38;;;14.30;99.90;;;;;;4972639;28;20698;-68
2021/08/27 04:01:34;;;;;;;12.82;8.38;;;14.30;99.90;;;;;;4971444;28;20138;-68
2021/08/27 04:04:01;;;;;;;12.63;8.35;;;14.30;99.90;;;;;;4972342;28;20783;-68
2021/08/27 04:06:28;;;;;;;11.90;8.13;;;14.40;99.90;;;;;;4971777;28;20141;-68
2021/08/27 04:08:55;;;;;;;9.48;7.30;;;14.40;99.90;;;;;;4973605;28;20050;-69
2021/08/27 04:11:22;;;;;;;12.70;8.10;;;14.40;99.90;;;;;;4970663;28;20116;-67
2021/08/27 04:13:48;;;;;;;12.02;7.95;;;14.40;99.90;;;;;;4971807;28;20145;-66
2021/08/27 04:16:15;;;;;;;12.75;9.20;;;14.40;99.90;;;;;;4984668;28;20074;-66
2021/08/27 04:18:42;;;;;;;9.13;7.75;;;14.40;99.90;;;;;;4973411;28;20050;-68
2021/08/27 04:21:09;;;;;;;8.35;7.30;;;14.50;99.90;;;;;;4973022;28;20054;-66
2021/08/27 04:23:36;;;;;;;10.90;7.75;;;14.50;99.90;;;;;;4974607;28;20144;-69
2021/08/27 04:26:04;;;;;;;13.02;7.88;;;14.50;99.90;;;;;;4972426;28;20050;-67
2021/08/27 04:28:31;;;;;;;8.75;7.85;;;14.50;99.90;;;;;;4976404;28;20101;-67
2021/08/27 04:30:58;;;;;;;9.90;7.50;;;14.50;99.90;;;;;;4973605;28;20081;-67
2021/08/27 04:33:25;;;;;;;12.15;8.57;;;14.60;99.90;;;;;;4975092;28;20050;-68
2021/08/27 04:35:52;;;;;;;11.73;8.13;;;14.60;99.90;;;;;;4973175;28;20069;-70
2021/08/27 04:38:19;;;;;;;12.13;9.82;;;14.60;99.90;;;;;;4974892;28;20118;-69
2021/08/27 04:40:46;;;;;;;9.77;7.47;;;14.60;99.90;;;;;;4974213;28;20046;-68
2021/08/27 04:43:13;;;;;;;13.18;9.07;;;14.60;99.90;;;;;;4974805;28;20141;-68
2021/08/27 04:45:40;;;;;;;10.95;7.25;;;14.60;99.90;;;;;;4968444;28;20756;-67
2021/08/27 04:48:07;;;;;;;10.90;8.65;;;14.60;99.90;;;;;;4973597;28;20046;-70
2021/08/27 04:50:33;;;;;;;14.93;7.95;;;14.70;99.90;;;;;;4973364;28;20125;-69
2021/08/27 04:53:00;;;;;;;11.07;8.38;;;14.70;99.90;;;;;;4973062;28;20049;-69
2021/08/27 04:55:27;;;;;;;10.35;9.00;;;14.70;99.90;;;;;;4972474;28;20202;-67
2021/08/27 04:57:54;;;;;;;10.30;8.70;;;14.70;99.90;;;;;;4971433;28;20226;-68
2021/08/27 05:00:21;;;;;;;11.43;8.85;;;14.70;99.90;;;;;;4972569;28;20136;-66
2021/08/27 05:02:48;;;;;;;10.85;7.53;;;14.80;99.90;;;;;;4973602;28;20050;-68
2021/08/27 05:05:16;;;;;;;17.05;8.60;;;14.80;99.90;;;;;;4972976;28;20168;-69
2021/08/27 05:07:43;;;;;;;11.98;8.05;;;14.80;99.90;;;;;;4970591;28;20072;-70
2021/08/27 05:10:11;;;;;;;10.90;7.45;;;14.80;99.90;;;;;;4973920;28;20133;-69
2021/08/27 05:12:38;;;;;;;11.20;8.27;;;14.90;99.90;;;;;;4972907;28;20069;-68
2021/08/27 05:15:06;;;;;;;8.10;7.30;;;14.90;99.90;;;;;;4971439;28;20069;-70
2021/08/27 05:17:33;;;;;;;10.70;7.88;;;14.90;99.90;;;;;;4970375;28;20149;-72
2021/08/27 05:20:00;;;;;;;11.77;7.13;;;15.00;99.90;;;;;;4969606;28;20189;-69
2021/08/27 05:22:27;;;;;;;9.65;7.38;;;15.00;99.90;;;;;;4972420;28;20209;-71
2021/08/27 05:24:55;;;;;;;8.80;7.25;;;15.00;99.90;;;;;;4971642;28;20051;-69
2021/08/27 05:27:22;;;;;;;9.52;7.75;;;15.00;99.90;;;;;;4973106;28;20141;-66
2021/08/27 05:29:49;;;;;;;10.63;7.97;;;15.00;99.90;;;;;;4970303;28;20058;-69
2021/08/27 05:32:17;;;;;;;10.57;7.72;;;15.00;99.90;;;;;;4973386;28;20058;-67
2021/08/27 05:34:45;;;;;;;8.50;7.45;;;15.10;99.90;;;;;;4971572;28;20464;-72
2021/08/27 05:37:12;;;;;;;9.23;7.88;;;15.10;99.90;;;;;;4972323;28;20145;-67
2021/08/27 05:39:39;;;;;;;7.90;7.07;;;15.10;99.90;;;;;;4970344;28;20566;-72
2021/08/27 05:42:06;;;;;;;10.98;7.30;;;15.10;99.90;;;;;;4988027;28;20142;-69
2021/08/27 05:44:33;;;;;;;7.70;6.75;;;15.10;99.90;;;;;;4970676;28;20228;-69
2021/08/27 05:46:59;;;;;;;12.23;7.60;;;15.10;99.90;;;;;;4973274;28;20101;-67
2021/08/27 05:49:26;;;;;;;11.20;7.50;;;15.10;99.90;;;;;;4970684;28;20137;-69
2021/08/27 05:51:53;;;;;;;9.48;7.28;;;15.10;99.90;;;;;;4970959;28;20061;-68
2021/08/27 05:54:20;;;;;;;9.02;6.78;;;15.10;99.90;;;;;;4974326;28;20074;-69
2021/08/27 05:56:47;;;;;;;9.40;7.50;;;15.10;99.90;;;;;;4976954;28;21739;-68
2021/08/27 05:59:14;;;;;;;9.95;6.43;;;15.20;99.90;;;;;;4978834;28;20161;-70
2021/08/27 06:01:41;;;;;;;9.20;7.82;;;15.20;99.90;;;;;;4975376;28;20105;-70
2021/08/27 06:04:09;;;;;;;8.65;6.28;;;15.30;99.90;;;;;;4980096;28;20054;-67
2021/08/27 06:06:36;;;;;;;8.52;6.45;;;15.30;99.90;;;;;;4978475;28;20531;-67
2021/08/27 06:09:06;;;;;;;11.30;8.95;;;15.40;99.90;;;;;;4978532;28;20141;-67
2021/08/27 06:11:37;;;;;;;15.98;10.93;;;15.40;99.90;;;;;;4977908;28;20053;-68
2021/08/27 06:14:05;;;;;;;22.52;13.02;;;15.50;99.90;;;;;;4976946;28;20087;-70
2021/08/27 06:16:33;;;;;;;30.15;17.90;;;15.60;99.90;;;;;;4977849;28;20157;-68
2021/08/27 06:19:02;;;;;;;35.22;23.08;;;15.60;99.90;;;;;;4977412;28;20633;-69
2021/08/27 06:21:30;;;;;;;27.75;19.08;;;15.70;99.90;;;;;;4977322;28;20240;-68
2021/08/27 06:23:57;;;;;;;19.20;14.43;;;15.70;99.90;;;;;;4975848;28;20133;-71
2021/08/27 06:26:24;;;;;;;12.15;8.80;;;15.70;99.90;;;;;;4978262;28;20166;-66
2021/08/27 06:28:51;;;;;;;14.18;9.20;;;15.70;99.90;;;;;;4976437;28;21696;-69
2021/08/27 06:31:18;;;;;;;14.13;10.18;;;15.80;99.90;;;;;;4978030;28;20480;-70
2021/08/27 06:33:45;;;;;;;16.40;9.65;;;15.80;99.90;;;;;;4975327;28;20518;-67
2021/08/27 06:36:12;;;;;;;17.02;11.18;;;15.80;99.90;;;;;;4976433;28;21074;-67
2021/08/27 06:38:39;;;;;;;17.33;13.05;;;15.90;99.90;;;;;;4976839;28;20050;-67
2021/08/27 06:41:07;;;;;;;21.27;15.38;;;16.00;99.90;;;;;;4976605;28;20133;-67
2021/08/27 06:43:41;;;;;;;26.02;16.88;;;16.00;99.90;;;;;;4977690;28;20116;-71
2021/08/27 06:46:14;;;;;;;22.83;12.48;;;16.00;99.90;;;;;;4973598;28;20082;-69
2021/08/27 06:48:42;;;;;;;16.67;12.18;;;16.00;99.90;;;;;;4976656;28;20760;-69
2021/08/27 06:51:09;;;;;;;16.55;10.82;;;16.00;99.90;;;;;;4976800;28;20435;-70
2021/08/27 06:53:36;;;;;;;10.50;8.60;;;16.00;99.90;;;;;;4977092;28;20157;-69
2021/08/27 06:56:03;;;;;;;13.05;10.60;;;16.00;99.90;;;;;;4976742;28;20582;-68
2021/08/27 06:58:31;;;;;;;15.18;12.02;;;16.00;99.90;;;;;;4972575;28;20583;-68
2021/08/27 07:00:58;;;;;;;18.33;13.98;;;16.10;99.90;;;;;;4975257;28;20137;-69
2021/08/27 07:03:25;;;;;;;14.25;12.52;;;16.10;99.90;;;;;;4976454;28;20042;-69
2021/08/27 07:05:53;;;;;;;12.95;9.52;;;16.10;99.90;;;;;;4973198;28;20050;-70
2021/08/27 07:08:20;;;;;;;11.95;9.70;;;16.10;99.90;;;;;;4975781;28;20103;-67
2021/08/27 07:10:48;;;;;;;11.00;9.85;;;16.20;99.90;;;;;;4976765;28;20046;-67
2021/08/27 07:13:15;;;;;;;12.38;10.45;;;16.20;99.90;;;;;;4976328;28;20491;-69
2021/08/27 07:15:42;;;;;;;9.68;8.30;;;16.20;99.90;;;;;;4973385;28;20125;-70
2021/08/27 07:18:09;;;;;;;8.18;7.20;;;16.20;99.90;;;;;;4977281;28;20064;-68
2021/08/27 07:20:37;;;;;;;11.13;7.50;;;16.30;99.90;;;;;;4976033;28;20642;-70
2021/08/27 07:23:04;;;;;;;8.90;7.88;;;16.20;99.90;;;;;;4975742;28;20512;-66
2021/08/27 07:25:31;;;;;;;12.43;8.85;;;16.30;99.90;;;;;;4977845;28;20096;-70
2021/08/27 07:27:58;;;;;;;11.23;10.05;;;16.30;99.90;;;;;;4975448;28;20078;-66
2021/08/27 07:30:25;;;;;;;12.27;8.75;;;16.40;99.90;;;;;;4975962;28;20136;-72
2021/08/27 07:32:52;;;;;;;12.25;8.80;;;16.40;99.90;;;;;;4976888;28;20134;-69
2021/08/27 07:35:19;;;;;;;11.13;8.73;;;16.40;99.90;;;;;;4976256;28;20076;-69
2021/08/27 07:37:46;;;;;;;10.25;7.30;;;16.40;99.90;;;;;;4974471;28;20128;-67
2021/08/27 07:40:15;;;;;;;7.05;6.32;;;16.40;99.90;;;;;;4976454;28;20137;-71
2021/08/27 07:42:42;;;;;;;7.47;6.18;;;16.40;99.90;;;;;;4975249;28;20066;-69
2021/08/27 07:45:09;;;;;;;7.00;6.30;;;16.40;99.90;;;;;;4975283;28;20800;-72
2021/08/27 07:47:36;;;;;;;8.05;7.18;;;16.40;99.90;;;;;;4977953;28;20074;-67
2021/08/27 07:50:05;;;;;;;5.53;4.85;;;16.30;99.90;;;;;;4974263;28;20146;-66
2021/08/27 07:52:32;;;;;;;8.05;5.80;;;16.20;99.90;;;;;;4977679;28;21073;-67
2021/08/27 07:54:59;;;;;;;10.38;5.75;;;16.20;99.90;;;;;;4975746;28;20543;-71
2021/08/27 07:57:27;;;;;;;8.10;6.85;;;16.20;99.90;;;;;;4977502;28;20074;-66
2021/08/27 07:59:54;;;;;;;7.93;7.07;;;16.20;99.90;;;;;;4984921;28;20078;-67
2021/08/27 08:02:21;;;;;;;10.45;8.20;;;16.10;99.90;;;;;;4976188;28;20082;-68
2021/08/27 08:04:48;;;;;;;10.40;9.00;;;16.10;99.90;;;;;;4974951;28;20054;-67
2021/08/27 08:07:15;;;;;;;10.70;9.55;;;16.20;99.90;;;;;;4975160;28;20146;-69
2021/08/27 08:09:42;;;;;;;10.23;9.15;;;16.20;99.90;;;;;;4973301;28;20149;-73
2021/08/27 08:12:09;;;;;;;9.68;7.22;;;16.20;99.90;;;;;;4976664;28;20077;-67
2021/08/27 08:14:36;;;;;;;8.00;7.25;;;16.30;99.90;;;;;;4974824;28;20136;-72
2021/08/27 08:17:03;;;;;;;8.77;7.88;;;16.30;99.90;;;;;;4975005;28;20487;-70
2021/08/27 08:19:30;;;;;;;11.05;8.68;;;16.30;99.90;;;;;;4975340;28;20096;-67
2021/08/27 08:21:57;;;;;;;9.82;6.95;;;16.30;99.90;;;;;;4974648;28;22480;-70
2021/08/27 08:24:25;;;;;;;12.02;8.05;;;16.40;99.90;;;;;;4974990;28;20193;-69
2021/08/27 08:26:53;;;;;;;6.90;6.27;;;16.40;99.90;;;;;;4975701;28;20055;-69
2021/08/27 08:29:20;;;;;;;6.32;5.78;;;16.40;99.90;;;;;;4974920;28;20307;-67
2021/08/27 08:31:47;;;;;;;7.95;6.10;;;16.40;99.90;;;;;;4975119;28;20380;-69
2021/08/27 08:34:14;;;;;;;8.18;6.78;;;16.40;99.90;;;;;;4976730;28;20137;-69
2021/08/27 08:36:41;;;;;;;8.93;6.35;;;16.40;99.90;;;;;;4975772;28;20189;-66
2021/08/27 08:39:07;;;;;;;7.95;6.07;;;16.40;99.90;;;;;;4975635;28;20050;-69
2021/08/27 08:41:34;;;;;;;8.80;7.40;;;16.40;99.90;;;;;;4975769;28;20077;-68
2021/08/27 08:44:01;;;;;;;10.10;6.60;;;16.40;99.90;;;;;;4973608;28;20161;-68
2021/08/27 08:46:30;;;;;;;9.63;6.53;;;16.50;99.90;;;;;;4973723;28;20112;-71
2021/08/27 08:48:59;;;;;;;9.13;7.63;;;16.60;99.90;;;;;;4974489;28;20046;-67
2021/08/27 08:51:28;;;;;;;9.45;8.27;;;16.60;99.90;;;;;;4973167;28;20279;-67
2021/08/27 08:53:56;;;;;;;9.60;7.18;;;16.60;99.90;;;;;;4972268;28;20074;-69
2021/08/27 08:56:23;;;;;;;8.43;7.50;;;16.60;99.90;;;;;;4974564;28;20138;-70
2021/08/27 08:58:50;;;;;;;9.38;7.90;;;16.70;99.90;;;;;;4974719;28;20200;-70
2021/08/27 09:01:17;;;;;;;12.95;9.15;;;16.70;99.90;;;;;;4974671;28;20141;-67
2021/08/27 09:03:46;;;;;;;8.88;8.00;;;16.70;99.90;;;;;;4971918;28;20053;-70
2021/08/27 09:06:14;;;;;;;12.98;9.68;;;16.70;99.90;;;;;;4974033;28;20472;-71
2021/08/27 09:08:46;;;;;;;15.43;8.18;;;16.70;99.90;;;;;;4973758;28;20312;-69
2021/08/27 09:11:17;;;;;;;8.57;6.55;;;16.70;99.90;;;;;;4973151;28;20133;-67
2021/08/27 09:13:45;;;;;;;10.07;6.22;;;16.70;99.90;;;;;;4972966;28;20399;-67
2021/08/27 09:16:13;;;;;;;9.02;6.22;;;16.70;99.90;;;;;;4972886;28;20053;-68
2021/08/27 09:18:48;;;;;;;5.90;5.40;;;16.70;99.90;;;;;;4973869;28;20046;-67
2021/08/27 09:21:48;;;;;;;7.22;4.75;;;16.60;99.90;;;;;;4974384;28;20263;-66
2021/08/27 09:24:19;;;;;;;7.73;5.23;;;16.50;99.90;;;;;;4972337;28;20154;-70
2021/08/27 09:26:49;;;;;;;7.13;5.00;;;16.40;99.90;;;;;;4973192;28;20074;-72
2021/08/27 09:29:32;;;;;;;6.72;6.10;;;16.30;99.90;;;;;;4974096;28;20146;-70
2021/08/27 09:31:59;;;;;;;7.60;6.15;;;16.30;99.90;;;;;;4974870;28;20050;-67
2021/08/27 09:34:30;;;;;;;6.93;6.13;;;16.20;99.90;;;;;;4979820;28;21622;-66
2021/08/27 09:36:58;;;;;;;6.55;5.88;;;16.30;99.90;;;;;;4978003;28;20082;-69
2021/08/27 09:39:33;;;;;;;9.82;7.00;;;16.30;99.90;;;;;;4976304;28;20505;-67
2021/08/27 09:42:01;;;;;;;7.70;5.80;;;16.30;99.90;;;;;;4975724;28;20112;-67
2021/08/27 09:44:29;;;;;;;6.97;6.28;;;16.30;99.90;;;;;;4978254;28;20140;-67
2021/08/27 09:47:00;;;;;;;7.25;6.60;;;16.30;99.90;;;;;;4978208;28;20089;-68
2021/08/27 09:49:31;;;;;;;7.07;6.38;;;16.30;99.90;;;;;;4978101;28;20778;-66
2021/08/27 09:52:00;;;;;;;6.88;6.07;;;16.30;99.90;;;;;;4976210;28;20149;-68
2021/08/27 09:54:33;;;;;;;7.15;6.45;;;16.50;99.90;;;;;;4975665;28;20098;-67
2021/08/27 09:57:05;;;;;;;7.50;6.70;;;16.50;99.90;;;;;;4976485;28;20082;-67
2021/08/27 09:59:44;;;;;;;12.68;7.65;;;16.60;99.90;;;;;;4976317;28;20054;-67
2021/08/27 10:02:13;;;;;;;7.03;6.32;;;16.60;99.90;;;;;;4976153;28;20209;-70
2021/08/27 10:04:52;;;;;;;7.60;6.50;;;16.60;99.90;;;;;;4977483;28;20050;-70
2021/08/27 10:07:33;;;;;;;8.10;6.35;;;16.60;99.90;;;;;;4978212;28;20046;-69
2021/08/27 10:10:01;;;;;;;6.90;6.28;;;16.50;99.90;;;;;;4976427;28;20190;-66
2021/08/27 10:12:33;;;;;;;8.43;6.55;;;16.40;99.90;;;;;;4977238;28;20057;-70
2021/08/27 10:15:01;;;;;;;6.18;5.68;;;16.40;99.90;;;;;;4977687;28;20082;-66
2021/08/27 10:17:28;;;;;;;7.63;6.93;;;16.40;99.90;;;;;;4986753;28;20169;-70
2021/08/27 10:19:55;;;;;;;6.43;5.88;;;16.30;99.90;;;;;;4975447;28;20082;-67
2021/08/27 10:22:22;;;;;;;9.30;6.78;;;16.30;99.90;;;;;;4975795;28;20089;-68
2021/08/27 10:24:49;;;;;;;9.98;6.70;;;16.30;99.90;;;;;;4976888;28;20133;-70
2021/08/27 10:27:17;;;;;;;6.72;5.68;;;16.30;99.90;;;;;;4975851;28;20073;-69
2021/08/27 10:29:55;;;;;;;8.13;6.28;;;16.30;99.90;;;;;;4974889;28;20169;-67
2021/08/27 10:32:40;;;;;;;6.75;6.03;;;16.30;99.90;;;;;;4977366;28;20136;-68
2021/08/27 10:35:31;;;;;;;7.47;6.22;;;16.40;99.90;;;;;;4977354;28;20085;-69
2021/08/27 10:37:58;;;;;;;;;;;16.40;99.90;;;;;;4975131;28;20500;-67
2021/08/27 10:40:28;;;;;;;7.00;6.28;;;16.50;99.90;;;;;;4977118;28;20024;-68
2021/08/27 10:42:58;;;;;;;6.65;5.95;;;16.50;99.90;;;;;;4975797;28;20101;-65
2021/08/27 10:45:40;;;;;;;7.53;5.60;;;16.50;99.90;;;;;;4977135;28;20145;-64
2021/08/27 10:48:11;;;;;;;7.93;7.20;;;16.50;99.90;;;;;;4973723;28;20199;-66
2021/08/27 10:50:43;;;;;;;7.10;6.40;;;16.50;99.90;;;;;;4975950;28;20058;-68
2021/08/27 10:53:26;;;;;;;7.43;6.72;;;16.50;99.90;;;;;;4975415;28;20264;-67
2021/08/27 10:55:54;;;;;;;8.40;7.00;;;16.50;99.90;;;;;;4974113;28;20141;-66
2021/08/27 10:58:35;;;;;;;6.60;5.57;;;16.60;99.90;;;;;;4976633;28;20058;-69
2021/08/27 11:01:03;;;;;;;7.43;6.72;;;16.60;99.90;;;;;;4975697;28;20077;-70
2021/08/27 11:04:03;;;;;;;9.25;6.93;;;16.70;99.90;;;;;;4976705;28;20412;-69
2021/08/27 11:06:31;;;;;;;7.73;6.93;;;16.70;99.90;;;;;;4974960;28;20057;-67
2021/08/27 11:09:34;;;;;;;9.43;7.15;;;16.80;99.90;;;;;;4977589;28;20139;-70
2021/08/27 11:12:16;;;;;;;13.13;7.82;;;16.80;99.90;;;;;;4915418;29;20114;-65
2021/08/27 11:14:47;;;;;;;8.80;7.90;;;16.80;99.90;;;;;;4971864;28;20083;-66
2021/08/27 11:17:14;;;;;;;9.30;8.38;;;16.80;99.90;;;;;;4975741;28;20089;-66
2021/08/27 11:19:58;;;;;;;10.13;8.55;;;16.80;99.90;;;;;;4975115;28;20150;-64
2021/08/27 11:22:31;;;;;;;8.55;7.75;;;16.80;99.90;;;;;;4976347;28;20141;-67
2021/08/27 11:25:05;;;;;;;12.80;8.32;;;16.90;99.90;;;;;;4977309;28;21443;-66
2021/08/27 11:27:32;;;;;;;8.15;7.35;;;16.80;99.90;;;;;;4976091;28;20082;-67
2021/08/27 11:30:28;;;;;;;7.38;6.57;;;16.90;99.90;;;;;;4974826;28;20415;-64
2021/08/27 11:32:58;;;;;;;9.30;7.13;;;16.90;99.90;;;;;;4976531;28;20074;-66
2021/08/27 11:35:25;;;;;;;8.32;7.47;;;16.90;99.90;;;;;;4975922;28;20090;-64
2021/08/27 11:38:05;;;;;;;9.45;8.07;;;16.90;99.90;;;;;;4974208;28;20054;-67
2021/08/27 11:40:32;;;;;;;6.80;6.13;;;16.90;99.90;;;;;;4974444;28;20070;-67
2021/08/27 11:42:59;;;;;;;6.85;6.20;;;16.80;99.90;;;;;;4975825;28;20562;-66
2021/08/27 11:45:27;;;;;;;8.98;8.13;;;16.80;99.90;;;;;;4975873;28;20149;-67
2021/08/27 11:47:58;;;;;;;8.07;6.60;;;16.80;99.90;;;;;;4973525;28;20165;-66
2021/08/27 11:50:50;;;;;;;7.22;6.10;;;16.80;99.90;;;;;;4975277;28;20136;-68
2021/08/27 11:53:17;;;;;;;8.52;7.40;;;16.80;99.90;;;;;;4977667;28;20148;-65
2021/08/27 11:55:46;;;;;;;8.00;6.82;;;16.80;99.90;;;;;;4972290;28;20078;-70
2021/08/27 11:58:12;;;;;;;8.15;7.35;;;16.80;99.90;;;;;;4974557;28;20137;-69
2021/08/27 12:00:42;;;;;;;7.10;6.40;;;16.80;99.90;;;;;;4973978;28;20146;-67
2021/08/27 12:03:14;;;;;;;10.20;7.43;;;16.70;99.90;;;;;;4975178;28;20127;-68
2021/08/27 12:05:42;;;;;;;8.23;7.07;;;16.80;99.90;;;;;;4972898;28;20054;-67
2021/08/27 12:08:11;;;;;;;6.53;5.63;;;16.80;99.90;;;;;;4973629;28;21444;-67
2021/08/27 12:10:39;;;;;;;8.35;6.03;;;16.80;99.90;;;;;;4975104;28;20874;-67
2021/08/27 12:13:11;;;;;;;7.03;6.32;;;16.80;99.90;;;;;;4975013;28;20101;-67
2021/08/27 12:15:43;;;;;;;8.15;6.57;;;16.80;99.90;;;;;;4972001;28;20054;-66
2021/08/27 12:18:16;;;;;;;10.95;6.70;;;16.80;99.90;;;;;;4975346;28;20169;-67
2021/08/27 12:20:46;;;;;;;6.07;5.47;;;16.80;99.90;;;;;;4975630;28;20054;-65
2021/08/27 12:23:21;;;;;;;7.27;5.47;;;16.80;99.90;;;;;;4971893;28;20137;-66
2021/08/27 12:25:59;;;;;;;7.57;5.18;;;16.70;99.90;;;;;;4962831;28;20074;-66
2021/08/27 12:28:34;;;;;;;6.85;4.80;;;16.70;99.90;;;;;;4974830;28;20149;-66
2021/08/27 12:31:02;;;;;;;10.00;5.43;;;16.60;99.90;;;;;;4975201;28;20466;-64
2021/08/27 12:33:35;;;;;;;7.10;6.40;;;16.60;99.90;;;;;;4975626;28;20054;-69
2021/08/27 12:36:02;;;;;;;7.03;5.10;;;16.60;99.90;;;;;;4972225;28;20077;-66
2021/08/27 12:38:30;;;;;;;6.10;5.50;;;16.50;99.90;;;;;;4973886;28;20050;-68
2021/08/27 12:41:15;;;;;;;10.73;6.00;;;16.40;99.90;;;;;;4973601;28;20141;-65
2021/08/27 12:43:43;;;;;;;8.07;6.35;;;16.40;99.90;;;;;;4973227;28;20097;-64
2021/08/27 12:46:28;;;;;;;6.78;6.05;;;16.30;99.90;;;;;;4974400;28;20054;-69
2021/08/27 12:49:12;;;;;;;8.57;7.82;;;16.30;99.90;;;;;;4974941;28;20133;-64
2021/08/27 12:51:43;;;;;;;6.80;6.10;;;16.30;99.90;;;;;;4972296;28;20141;-66
2021/08/27 12:54:12;;;;;;;5.13;4.63;;;16.20;99.90;;;;;;4974166;28;20125;-65
2021/08/27 12:56:39;;;;;;;6.72;6.05;;;16.20;99.90;;;;;;4974239;28;20501;-69